createdAt,value
2022-12-04T00:01:28.723Z,0.37
2022-12-04T00:03:59.690Z,0.38
2022-12-04T00:06:28.568Z,0.37
2022-12-04T00:08:57.090Z,0.37
2022-12-04T00:11:28.673Z,0.38
2022-12-04T00:14:02.944Z,0.37
2022-12-04T00:16:33.268Z,0.37
2022-12-04T00:19:01.490Z,0.38
2022-12-04T00:21:29.594Z,0.40
2022-12-04T00:23:57.889Z,0.42
2022-12-04T00:26:27.795Z,0.42
2022-12-04T00:28:57.082Z,0.42
2022-12-04T00:31:27.767Z,0.42
2022-12-04T00:33:56.579Z,0.42
2022-12-04T00:36:26.842Z,0.41
2022-12-04T00:38:55.994Z,0.41
2022-12-04T00:41:26.222Z,0.41
2022-12-04T00:43:54.659Z,0.40
2022-12-04T00:46:23.096Z,0.39
2022-12-04T00:48:52.001Z,0.41
2022-12-04T00:51:22.952Z,0.40
2022-12-04T00:53:52.489Z,0.39
2022-12-04T00:56:24.565Z,0.39
2022-12-04T00:58:54.311Z,0.38
2022-12-04T01:01:23.831Z,0.36
2022-12-04T01:03:53.706Z,0.37
2022-12-04T01:06:30.705Z,0.36
2022-12-04T01:09:00.580Z,0.35
2022-12-04T01:11:30.218Z,0.34
2022-12-04T01:13:59.738Z,0.35
2022-12-04T01:16:32.664Z,0.36
2022-12-04T01:19:01.626Z,0.37
2022-12-04T01:21:29.943Z,0.38
2022-12-04T01:23:59.816Z,0.37
2022-12-04T01:26:28.779Z,0.36
2022-12-04T01:28:57.381Z,0.37
2022-12-04T01:31:25.927Z,0.37
2022-12-04T01:33:54.365Z,0.38
2022-12-04T01:36:26.771Z,0.38
2022-12-04T01:38:55.999Z,0.38
2022-12-04T01:41:27.768Z,0.37
2022-12-04T01:44:19.717Z,0.36
2022-12-04T01:46:56.464Z,0.36
2022-12-04T01:49:45.429Z,0.34
2022-12-04T01:52:26.394Z,0.32
2022-12-04T01:54:59.309Z,0.33
2022-12-04T01:57:32.164Z,0.34
2022-12-04T02:00:13.538Z,0.33
2022-12-04T02:03:15.856Z,0.34
2022-12-04T02:05:44.351Z,0.34
2022-12-04T02:08:12.910Z,0.34
2022-12-04T02:11:08.671Z,0.32
2022-12-04T02:13:42.630Z,0.33
2022-12-04T02:16:22.581Z,0.33
2022-12-04T02:19:06.590Z,0.33
2022-12-04T02:21:40.718Z,0.34
2022-12-04T02:24:21.094Z,0.34
2022-12-04T02:26:58.973Z,0.34
2022-12-04T02:29:37.538Z,0.33
2022-12-04T02:32:45.137Z,0.33
2022-12-04T02:35:21.746Z,0.34
2022-12-04T02:37:56.936Z,0.33
2022-12-04T02:40:27.017Z,0.33
2022-12-04T02:43:10.641Z,0.33
2022-12-04T02:45:51.493Z,0.34
2022-12-04T02:48:22.060Z,0.36
2022-12-04T02:50:55.010Z,0.37
2022-12-04T02:53:36.515Z,0.37
2022-12-04T02:56:20.115Z,0.37
2022-12-04T02:58:59.042Z,0.36
2022-12-04T03:01:33.221Z,0.33
2022-12-04T03:04:11.645Z,0.32
2022-12-04T03:06:44.318Z,0.32
2022-12-04T03:09:20.196Z,0.32
2022-12-04T03:12:01.863Z,0.31
2022-12-04T03:14:35.241Z,0.32
2022-12-04T03:17:14.924Z,0.33
2022-12-04T03:19:51.514Z,0.38
2022-12-04T03:22:22.253Z,0.38
2022-12-04T03:24:52.927Z,0.38
2022-12-04T03:28:13.904Z,0.40
2022-12-04T03:30:51.881Z,0.39
2022-12-04T03:33:38.990Z,0.38
2022-12-04T03:36:12.360Z,0.39
2022-12-04T03:39:07.468Z,0.39
2022-12-04T03:41:53.988Z,0.41
2022-12-04T03:44:44.137Z,0.41
2022-12-04T03:47:16.716Z,0.42
2022-12-04T03:50:11.738Z,0.43
2022-12-04T03:52:58.462Z,0.44
2022-12-04T03:55:36.385Z,0.44
2022-12-04T03:58:10.317Z,0.45
2022-12-04T04:00:43.130Z,0.46
2022-12-04T04:03:15.948Z,0.47
2022-12-04T04:05:47.974Z,0.44
2022-12-04T04:08:26.575Z,0.43
2022-12-04T04:11:14.075Z,0.43
2022-12-04T04:14:16.266Z,0.46
2022-12-04T04:17:12.003Z,0.46
2022-12-04T04:20:02.027Z,0.46
2022-12-04T04:22:53.011Z,0.45
2022-12-04T04:25:28.040Z,0.42
2022-12-04T04:27:58.612Z,0.41
2022-12-04T04:30:29.839Z,0.40
2022-12-04T04:33:06.588Z,0.40
2022-12-04T04:35:53.803Z,0.39
2022-12-04T04:38:31.880Z,0.38
2022-12-04T04:41:11.233Z,0.37
2022-12-04T04:44:19.880Z,0.37
2022-12-04T04:46:53.987Z,0.35
2022-12-04T04:49:26.012Z,0.34
2022-12-04T04:51:55.372Z,0.35
2022-12-04T04:54:25.432Z,0.37
2022-12-04T04:56:53.568Z,0.39
2022-12-04T04:59:24.296Z,0.40
2022-12-04T05:01:52.862Z,0.40
2022-12-04T05:04:21.079Z,0.41
2022-12-04T05:06:49.567Z,0.40
2022-12-04T05:09:17.888Z,0.39
2022-12-04T05:11:45.960Z,0.39
2022-12-04T05:14:14.093Z,0.38
2022-12-04T05:16:42.563Z,0.38
2022-12-04T05:19:28.994Z,0.38
2022-12-04T05:21:57.559Z,0.38
2022-12-04T05:24:25.686Z,0.39
2022-12-04T05:26:53.790Z,0.40
2022-12-04T05:29:22.252Z,0.40
2022-12-04T05:31:50.402Z,0.38
2022-12-04T05:34:18.826Z,0.37
2022-12-04T05:36:47.015Z,0.37
2022-12-04T05:39:15.029Z,0.36
2022-12-04T05:41:43.353Z,0.36
2022-12-04T05:44:11.681Z,0.35
2022-12-04T05:46:39.890Z,0.34
2022-12-04T05:49:07.988Z,0.34
2022-12-04T05:51:36.342Z,0.35
2022-12-04T05:54:04.507Z,0.36
2022-12-04T05:56:32.710Z,0.37
2022-12-04T05:59:00.998Z,0.37
2022-12-04T06:01:29.135Z,0.36
2022-12-04T06:03:57.268Z,0.36
2022-12-04T06:06:26.637Z,0.36
2022-12-04T06:08:57.856Z,0.34
2022-12-04T06:11:29.711Z,0.35
2022-12-04T06:13:59.881Z,0.34
2022-12-04T06:16:31.566Z,0.34
2022-12-04T06:19:02.571Z,0.34
2022-12-04T06:21:31.931Z,0.34
2022-12-04T06:24:00.082Z,0.33
2022-12-04T06:26:28.726Z,0.32
2022-12-04T06:28:57.991Z,0.30
2022-12-04T06:31:28.410Z,0.29
2022-12-04T06:33:57.995Z,0.30
2022-12-04T06:36:26.779Z,0.31
2022-12-04T06:38:56.602Z,0.33
2022-12-04T06:41:26.155Z,0.33
2022-12-04T06:43:55.022Z,0.33
2022-12-04T06:46:26.161Z,0.33
2022-12-04T06:48:56.416Z,0.31
2022-12-04T06:51:36.730Z,0.30
2022-12-04T06:54:04.990Z,0.31
2022-12-04T06:56:34.572Z,0.33
2022-12-04T06:59:04.353Z,0.35
2022-12-04T07:01:34.027Z,0.32
2022-12-04T07:04:06.715Z,0.32
2022-12-04T07:06:36.679Z,0.35
2022-12-04T07:09:08.106Z,0.35
2022-12-04T07:11:37.651Z,0.35
2022-12-04T07:14:06.207Z,0.37
2022-12-04T07:16:40.334Z,0.38
2022-12-04T07:19:14.087Z,0.37
2022-12-04T07:21:43.261Z,0.38
2022-12-04T07:24:16.777Z,0.39
2022-12-04T07:26:45.303Z,0.40
2022-12-04T07:29:14.017Z,0.42
2022-12-04T07:31:42.407Z,0.41
2022-12-04T07:34:10.705Z,0.41
2022-12-04T07:36:40.130Z,0.44
2022-12-04T07:39:08.431Z,0.44
2022-12-04T07:41:36.625Z,0.43
2022-12-04T07:44:07.046Z,0.44
2022-12-04T07:46:36.206Z,0.47
2022-12-04T07:49:04.474Z,0.50
2022-12-04T07:51:32.849Z,0.52
2022-12-04T07:54:04.076Z,0.52
2022-12-04T07:56:33.588Z,0.54
2022-12-04T07:59:02.337Z,0.55
2022-12-04T08:01:32.036Z,0.57
2022-12-04T08:04:03.094Z,0.60
2022-12-04T08:06:33.652Z,0.63
2022-12-04T08:09:07.727Z,0.64
2022-12-04T08:11:38.675Z,0.63
2022-12-04T08:14:08.969Z,0.66
2022-12-04T08:16:37.788Z,0.69
2022-12-04T08:19:06.321Z,0.68
2022-12-04T08:21:34.749Z,0.67
2022-12-04T08:24:02.925Z,0.66
2022-12-04T08:26:33.756Z,0.67
2022-12-04T08:29:02.751Z,0.69
2022-12-04T08:31:33.907Z,0.70
2022-12-04T08:34:05.525Z,0.71
2022-12-04T08:36:34.635Z,0.72
2022-12-04T08:39:02.962Z,0.72
2022-12-04T08:41:31.454Z,0.73
2022-12-04T08:44:01.137Z,0.73
2022-12-04T08:46:29.808Z,0.72
2022-12-04T08:48:58.298Z,0.74
2022-12-04T08:51:29.526Z,0.75
2022-12-04T08:54:06.089Z,0.78
2022-12-04T08:56:35.876Z,0.80
2022-12-04T08:59:04.839Z,0.82
2022-12-04T09:01:33.189Z,0.85
2022-12-04T09:04:01.646Z,0.88
2022-12-04T09:06:30.148Z,0.88
2022-12-04T09:08:58.613Z,0.89
2022-12-04T09:11:28.429Z,0.90
2022-12-04T09:13:56.881Z,0.91
2022-12-04T09:16:26.180Z,0.93
2022-12-04T09:18:55.656Z,0.94
2022-12-04T09:21:25.274Z,0.93
2022-12-04T09:23:53.663Z,0.94
2022-12-04T09:26:23.735Z,0.94
2022-12-04T09:28:52.872Z,0.95
2022-12-04T09:31:21.871Z,0.98
2022-12-04T09:33:50.827Z,1.03
2022-12-04T09:36:19.142Z,1.07
2022-12-04T09:38:50.278Z,1.08
2022-12-04T09:41:33.753Z,1.07
2022-12-04T09:44:04.914Z,1.07
2022-12-04T09:46:40.491Z,1.08
2022-12-04T09:49:26.509Z,1.10
2022-12-04T09:52:00.426Z,1.12
2022-12-04T09:54:38.739Z,1.12
2022-12-04T09:57:37.273Z,1.13
2022-12-04T10:00:13.309Z,1.15
2022-12-04T10:02:44.989Z,1.15
2022-12-04T10:05:21.861Z,1.15
2022-12-04T10:08:00.344Z,1.18
2022-12-04T10:10:45.766Z,1.20
2022-12-04T10:13:35.685Z,1.19
2022-12-04T10:16:22.369Z,1.22
2022-12-04T10:19:08.768Z,1.23
2022-12-04T10:21:52.047Z,1.26
2022-12-04T10:24:34.817Z,1.29
2022-12-04T10:27:12.452Z,1.34
2022-12-04T10:29:44.929Z,1.36
2022-12-04T10:32:23.596Z,1.38
2022-12-04T10:34:54.877Z,1.37
2022-12-04T10:37:23.816Z,1.39
2022-12-04T10:40:02.787Z,1.43
2022-12-04T10:42:53.757Z,1.48
2022-12-04T10:45:23.257Z,1.53
2022-12-04T10:47:53.378Z,1.58
2022-12-04T10:50:24.697Z,1.62
2022-12-04T10:52:56.508Z,1.68
2022-12-04T10:55:38.887Z,1.74
2022-12-04T10:58:20.687Z,1.76
2022-12-04T11:01:11.595Z,1.74
2022-12-04T11:03:41.520Z,1.75
2022-12-04T11:06:10.702Z,1.78
2022-12-04T11:08:41.876Z,1.82
2022-12-04T11:11:13.502Z,1.85
2022-12-04T11:13:42.498Z,1.86
2022-12-04T11:16:35.727Z,1.88
2022-12-04T11:19:04.353Z,1.90
2022-12-04T11:21:32.814Z,1.91
2022-12-04T11:24:01.078Z,1.93
2022-12-04T11:26:37.486Z,1.94
2022-12-04T11:29:07.558Z,1.96
2022-12-04T11:31:35.918Z,1.98
2022-12-04T11:34:20.137Z,2.01
2022-12-04T11:36:57.299Z,2.01
2022-12-04T11:39:36.932Z,1.99
2022-12-04T11:42:17.317Z,1.96
2022-12-04T11:44:57.388Z,1.92
2022-12-04T11:47:32.222Z,1.91
2022-12-04T11:50:34.750Z,1.91
2022-12-04T11:53:21.374Z,1.91
2022-12-04T11:55:58.614Z,1.92
2022-12-04T11:58:54.943Z,1.93
2022-12-04T12:02:14.236Z,1.97
2022-12-04T12:04:53.534Z,1.99
2022-12-04T12:08:02.198Z,2.00
2022-12-04T12:10:48.295Z,1.95
2022-12-04T12:13:38.279Z,1.94
2022-12-04T12:16:18.392Z,1.92
2022-12-04T12:19:11.794Z,1.89
2022-12-04T12:21:54.087Z,1.89
2022-12-04T12:24:29.573Z,1.89
2022-12-04T12:27:13.662Z,1.88
2022-12-04T12:30:00.679Z,1.89
2022-12-04T12:32:46.739Z,1.91
2022-12-04T12:35:53.872Z,1.94
2022-12-04T12:38:31.180Z,1.92
2022-12-04T12:41:06.271Z,1.91
2022-12-04T12:43:42.004Z,1.90
2022-12-04T12:46:19.465Z,1.92
2022-12-04T12:48:56.594Z,1.93
2022-12-04T12:51:47.434Z,1.95
2022-12-04T12:54:37.068Z,1.97
2022-12-04T12:57:25.646Z,1.98
2022-12-04T13:00:00.113Z,1.98
2022-12-04T13:02:46.260Z,2.00
2022-12-04T13:05:21.745Z,2.00
2022-12-04T13:08:18.471Z,1.99
2022-12-04T13:11:01.592Z,2.00
2022-12-04T13:13:43.157Z,2.04
2022-12-04T13:16:19.809Z,2.06
2022-12-04T13:19:15.909Z,2.06
2022-12-04T13:22:05.542Z,2.02
2022-12-04T13:24:59.589Z,2.03
2022-12-04T13:27:52.267Z,2.03
2022-12-04T13:30:36.821Z,2.01
2022-12-04T13:33:34.293Z,1.97
2022-12-04T13:36:15.395Z,1.97
2022-12-04T13:38:46.361Z,1.97
2022-12-04T13:41:21.776Z,1.96
2022-12-04T13:43:52.268Z,1.95
2022-12-04T13:46:34.240Z,1.95
2022-12-04T13:49:13.593Z,1.98
2022-12-04T13:51:43.373Z,1.99
2022-12-04T13:54:11.993Z,2.02
2022-12-04T13:56:42.592Z,2.03
2022-12-04T13:59:29.639Z,2.04
2022-12-04T14:02:06.406Z,2.01
2022-12-04T14:04:39.427Z,2.00
2022-12-04T14:07:08.063Z,1.98
2022-12-04T14:09:43.243Z,1.97
2022-12-04T14:12:17.733Z,1.97
2022-12-04T14:14:54.667Z,1.98
2022-12-04T14:17:32.998Z,1.99
2022-12-04T14:20:08.266Z,1.95
2022-12-04T14:22:37.431Z,1.93
2022-12-04T14:25:24.435Z,1.90
2022-12-04T14:27:53.762Z,1.83
2022-12-04T14:30:36.731Z,1.78
2022-12-04T14:33:24.248Z,1.76
2022-12-04T14:36:17.130Z,1.72
2022-12-04T14:38:49.013Z,1.67
2022-12-04T14:41:25.341Z,1.62
2022-12-04T14:43:54.191Z,1.59
2022-12-04T14:46:28.461Z,1.58
2022-12-04T14:49:08.126Z,1.56
2022-12-04T14:51:42.026Z,1.54
2022-12-04T14:54:37.537Z,1.55
2022-12-04T14:57:21.452Z,1.57
2022-12-04T14:59:54.974Z,1.58
2022-12-04T15:02:41.001Z,1.57
2022-12-04T15:05:19.679Z,1.58
2022-12-04T15:07:52.829Z,1.57
2022-12-04T15:10:43.715Z,1.55
2022-12-04T15:13:18.576Z,1.53
2022-12-04T15:15:50.159Z,1.50
2022-12-04T15:18:21.649Z,1.49
2022-12-04T15:20:52.019Z,1.48
2022-12-04T15:23:30.439Z,1.48
2022-12-04T15:26:02.225Z,1.48
2022-12-04T15:28:36.959Z,1.50
2022-12-04T15:31:10.291Z,1.49
2022-12-04T15:33:40.378Z,1.51
2022-12-04T15:36:20.017Z,1.50
2022-12-04T15:38:50.434Z,1.51
2022-12-04T15:41:36.656Z,1.51
2022-12-04T15:44:34.946Z,1.49
2022-12-04T15:47:17.366Z,1.48
2022-12-04T15:49:46.334Z,1.46
2022-12-04T15:52:20.139Z,1.44
2022-12-04T15:54:53.656Z,1.42
2022-12-04T15:57:30.904Z,1.40
2022-12-04T16:00:02.989Z,1.38
2022-12-04T16:02:35.781Z,1.37
2022-12-04T16:05:11.590Z,1.34
2022-12-04T16:07:52.711Z,1.30
2022-12-04T16:10:29.386Z,1.29
2022-12-04T16:13:03.135Z,1.27
2022-12-04T16:15:37.456Z,1.26
2022-12-04T16:18:07.294Z,1.26
2022-12-04T16:20:37.327Z,1.25
2022-12-04T16:23:09.550Z,1.23
2022-12-04T16:25:37.660Z,1.20
2022-12-04T16:28:06.023Z,1.17
2022-12-04T16:30:35.969Z,1.14
2022-12-04T16:33:07.012Z,1.12
2022-12-04T16:35:35.240Z,1.09
2022-12-04T16:38:03.539Z,1.06
2022-12-04T16:40:31.989Z,1.03
2022-12-04T16:43:00.110Z,1.03
2022-12-04T16:45:35.460Z,1.01
2022-12-04T16:48:05.520Z,1.00
2022-12-04T16:50:33.654Z,0.99
2022-12-04T16:53:01.789Z,0.99
2022-12-04T16:55:36.398Z,1.00
2022-12-04T16:58:05.742Z,0.99
2022-12-04T17:00:34.464Z,0.98
2022-12-04T17:03:04.439Z,0.97
2022-12-04T17:05:35.797Z,0.95
2022-12-04T17:08:04.528Z,0.92
2022-12-04T17:10:32.616Z,0.90
2022-12-04T17:13:00.872Z,0.89
2022-12-04T17:15:29.198Z,0.89
2022-12-04T17:17:57.277Z,0.87
2022-12-04T17:20:25.619Z,0.83
2022-12-04T17:22:53.984Z,0.80
2022-12-04T17:25:22.049Z,0.77
2022-12-04T17:27:50.320Z,0.75
2022-12-04T17:30:18.787Z,0.74
2022-12-04T17:32:47.907Z,0.74
2022-12-04T17:35:16.220Z,0.74
2022-12-04T17:37:44.882Z,0.74
2022-12-04T17:40:14.699Z,0.78
2022-12-04T17:42:43.015Z,0.81
2022-12-04T17:45:12.132Z,0.81
2022-12-04T17:47:40.306Z,0.81
2022-12-04T17:50:09.018Z,0.78
2022-12-04T17:52:37.417Z,0.73
2022-12-04T17:55:08.353Z,0.70
2022-12-04T17:57:37.365Z,0.69
2022-12-04T18:00:06.317Z,0.66
2022-12-04T18:02:41.977Z,0.65
2022-12-04T18:05:10.439Z,0.65
2022-12-04T18:07:38.761Z,0.65
2022-12-04T18:10:07.690Z,0.66
2022-12-04T18:12:35.940Z,0.66
2022-12-04T18:15:05.449Z,0.65
2022-12-04T18:17:33.511Z,0.63
2022-12-04T18:20:05.134Z,0.63
2022-12-04T18:22:36.123Z,0.61
2022-12-04T18:25:04.624Z,0.60
2022-12-04T18:27:33.530Z,0.61
2022-12-04T18:30:04.106Z,0.60
2022-12-04T18:32:32.404Z,0.61
2022-12-04T18:35:00.518Z,0.60
2022-12-04T18:37:28.637Z,0.59
2022-12-04T18:39:59.112Z,0.59
2022-12-04T18:42:31.242Z,0.59
2022-12-04T18:45:00.296Z,0.59
2022-12-04T18:47:28.546Z,0.58
2022-12-04T18:49:56.914Z,0.57
2022-12-04T18:52:25.531Z,0.58
2022-12-04T18:54:53.643Z,0.59
2022-12-04T18:57:21.850Z,0.61
2022-12-04T18:59:50.298Z,0.61
2022-12-04T19:02:18.595Z,0.62
2022-12-04T19:04:46.924Z,0.63
2022-12-04T19:07:15.108Z,0.64
2022-12-04T19:12:31.614Z,0.69
2022-12-04T19:14:59.727Z,0.72
2022-12-04T19:17:27.882Z,0.78
2022-12-04T19:19:56.268Z,0.81
2022-12-04T19:22:24.499Z,0.84
2022-12-04T19:24:52.578Z,0.83
2022-12-04T19:27:20.768Z,0.80
2022-12-04T19:29:49.013Z,0.78
2022-12-04T19:32:17.166Z,0.77
2022-12-04T19:34:47.628Z,0.76
2022-12-04T19:37:16.956Z,0.75
2022-12-04T19:39:44.983Z,0.72
2022-12-04T19:42:13.534Z,0.72
2022-12-04T19:44:49.780Z,0.73
2022-12-04T19:47:21.358Z,0.75
2022-12-04T19:49:49.530Z,0.73
2022-12-04T19:52:17.923Z,0.73
2022-12-04T19:54:46.532Z,0.71
2022-12-04T19:57:17.655Z,0.69
2022-12-04T19:59:46.759Z,0.69
2022-12-04T20:02:16.225Z,0.67
2022-12-04T20:04:44.908Z,0.67
2022-12-04T20:07:13.344Z,0.69
2022-12-04T20:09:41.561Z,0.70
2022-12-04T20:12:10.156Z,0.72
2022-12-04T20:14:38.241Z,0.73
2022-12-04T20:17:06.542Z,0.74
2022-12-04T20:19:34.702Z,0.77
2022-12-04T20:22:03.016Z,0.79
2022-12-04T20:24:31.534Z,0.79
2022-12-04T20:27:03.290Z,0.80
2022-12-04T20:29:33.759Z,0.81
2022-12-04T20:32:02.051Z,0.79
2022-12-04T20:34:31.965Z,0.76
2022-12-04T20:37:00.251Z,0.74
2022-12-04T20:39:29.686Z,0.71
2022-12-04T20:41:57.877Z,0.67
2022-12-04T20:44:25.999Z,0.63
2022-12-04T20:46:54.403Z,0.61
2022-12-04T20:49:22.785Z,0.57
2022-12-04T20:51:52.428Z,0.54
2022-12-04T20:54:22.852Z,0.54
2022-12-04T20:56:53.142Z,0.52
2022-12-04T20:59:23.222Z,0.52
2022-12-04T21:01:52.786Z,0.48
2022-12-04T21:04:22.280Z,0.43
2022-12-04T21:06:50.733Z,0.42
2022-12-04T21:09:23.061Z,0.39
2022-12-04T21:11:55.644Z,0.37
2022-12-04T21:14:45.001Z,0.40
2022-12-04T21:17:18.556Z,0.43
2022-12-04T21:19:50.157Z,0.46
2022-12-04T21:22:19.194Z,0.50
2022-12-04T21:24:47.516Z,0.53
2022-12-04T21:27:20.779Z,0.53
2022-12-04T21:29:50.262Z,0.56
2022-12-04T21:32:19.518Z,0.58
2022-12-04T21:34:50.293Z,0.58
2022-12-04T21:37:18.835Z,0.58
2022-12-04T21:39:46.953Z,0.58
2022-12-04T21:42:33.412Z,0.55
2022-12-04T21:45:06.015Z,0.51
2022-12-04T21:47:36.221Z,0.48
2022-12-04T21:50:05.871Z,0.45
2022-12-04T21:52:33.982Z,0.44
2022-12-04T21:55:02.118Z,0.43
2022-12-04T21:57:30.328Z,0.40
2022-12-04T21:59:58.672Z,0.37
2022-12-04T22:02:27.349Z,0.37
2022-12-04T22:04:55.949Z,0.39
2022-12-04T22:07:24.072Z,0.41
2022-12-04T22:09:53.135Z,0.41
2022-12-04T22:15:10.121Z,0.33
2022-12-04T22:17:38.327Z,0.28
2022-12-04T22:20:07.329Z,0.26
2022-12-04T22:22:35.646Z,0.27
2022-12-04T22:25:04.066Z,0.24
2022-12-04T22:27:35.912Z,0.23
2022-12-04T22:30:05.503Z,0.23
2022-12-04T22:32:34.005Z,0.23
2022-12-04T22:35:02.496Z,0.23
2022-12-04T22:37:30.924Z,0.20
2022-12-04T22:39:59.479Z,0.18
2022-12-04T22:42:27.866Z,0.16
2022-12-04T22:44:56.144Z,0.15
2022-12-04T22:47:24.348Z,0.15
2022-12-04T22:49:52.464Z,0.14
2022-12-04T22:52:20.679Z,0.16
2022-12-04T22:54:52.022Z,0.17
2022-12-04T22:57:20.070Z,0.16
2022-12-04T22:59:48.262Z,0.17
2022-12-04T23:02:16.545Z,0.18
2022-12-04T23:04:45.218Z,0.18
2022-12-04T23:07:13.285Z,0.16
2022-12-04T23:09:41.713Z,0.13
2022-12-04T23:12:10.211Z,0.09
2022-12-04T23:14:38.574Z,0.09
2022-12-04T23:17:07.167Z,0.10
2022-12-04T23:19:35.439Z,0.10
2022-12-04T23:22:03.541Z,0.08
2022-12-04T23:24:33.414Z,0.06
2022-12-04T23:27:01.499Z,0.08
2022-12-04T23:29:52.271Z,0.09
2022-12-04T23:32:18.650Z,0.10
2022-12-04T23:34:46.851Z,0.09
2022-12-04T23:37:14.989Z,0.10
2022-12-04T23:39:43.333Z,0.10
2022-12-04T23:42:11.660Z,0.11
2022-12-04T23:44:39.815Z,0.10
2022-12-04T23:47:08.041Z,0.13
2022-12-04T23:49:36.325Z,0.15
2022-12-04T23:52:04.717Z,0.14
2022-12-04T23:54:36.012Z,0.08
2022-12-04T23:57:05.926Z,0.07
2022-12-04T23:59:34.346Z,0.08
